sensor_id;sensor_type;location;lat;lon;timestamp;P1;durP1;ratioP1;P2;durP2;ratioP2
55493;SDS011;41355;50.390;19.096;2023-04-16T00:02:13;94.95;;;37.03;;
55493;SDS011;41355;50.390;19.096;2023-04-16T00:04:40;106.53;;;41.83;;
55493;SDS011;41355;50.390;19.096;2023-04-16T00:07:06;110.40;;;42.28;;
55493;SDS011;41355;50.390;19.096;2023-04-16T00:09:32;118.93;;;46.20;;
55493;SDS011;41355;50.390;19.096;2023-04-16T00:11:58;119.13;;;46.00;;
55493;SDS011;41355;50.390;19.096;2023-04-16T00:14:24;113.95;;;44.53;;
55493;SDS011;41355;50.390;19.096;2023-04-16T00:16:50;109.25;;;41.88;;
55493;SDS011;41355;50.390;19.096;2023-04-16T00:19:16;96.15;;;39.17;;
55493;SDS011;41355;50.390;19.096;2023-04-16T00:21:42;123.88;;;47.85;;
55493;SDS011;41355;50.390;19.096;2023-04-16T00:24:08;140.82;;;51.25;;
55493;SDS011;41355;50.390;19.096;2023-04-16T00:26:34;135.50;;;49.90;;
55493;SDS011;41355;50.390;19.096;2023-04-16T00:29:00;101.72;;;39.13;;
55493;SDS011;41355;50.390;19.096;2023-04-16T00:31:27;123.65;;;44.80;;
55493;SDS011;41355;50.390;19.096;2023-04-16T00:33:53;107.18;;;40.25;;
55493;SDS011;41355;50.390;19.096;2023-04-16T00:36:20;113.00;;;46.05;;
55493;SDS011;41355;50.390;19.096;2023-04-16T00:38:46;120.10;;;43.45;;
55493;SDS011;41355;50.390;19.096;2023-04-16T00:41:12;107.90;;;42.22;;
55493;SDS011;41355;50.390;19.096;2023-04-16T00:43:38;125.72;;;44.28;;
55493;SDS011;41355;50.390;19.096;2023-04-16T00:46:04;121.10;;;45.30;;
55493;SDS011;41355;50.390;19.096;2023-04-16T00:48:34;117.53;;;46.92;;
55493;SDS011;41355;50.390;19.096;2023-04-16T00:51:02;124.05;;;49.40;;
55493;SDS011;41355;50.390;19.096;2023-04-16T00:53:28;136.73;;;52.25;;
55493;SDS011;41355;50.390;19.096;2023-04-16T00:55:55;148.05;;;54.08;;
55493;SDS011;41355;50.390;19.096;2023-04-16T00:58:21;134.00;;;48.45;;
55493;SDS011;41355;50.390;19.096;2023-04-16T01:00:48;135.25;;;48.47;;
55493;SDS011;41355;50.390;19.096;2023-04-16T01:03:14;135.38;;;48.75;;
55493;SDS011;41355;50.390;19.096;2023-04-16T01:05:40;125.63;;;41.28;;
55493;SDS011;41355;50.390;19.096;2023-04-16T01:08:06;127.00;;;44.65;;
55493;SDS011;41355;50.390;19.096;2023-04-16T01:10:32;117.18;;;43.00;;
55493;SDS011;41355;50.390;19.096;2023-04-16T01:12:58;125.55;;;46.30;;
55493;SDS011;41355;50.390;19.096;2023-04-16T01:15:24;140.27;;;45.63;;
55493;SDS011;41355;50.390;19.096;2023-04-16T01:17:50;123.45;;;45.35;;
55493;SDS011;41355;50.390;19.096;2023-04-16T01:20:16;109.57;;;40.60;;
55493;SDS011;41355;50.390;19.096;2023-04-16T01:22:42;135.60;;;49.17;;
55493;SDS011;41355;50.390;19.096;2023-04-16T01:25:12;141.02;;;48.33;;
55493;SDS011;41355;50.390;19.096;2023-04-16T01:27:38;112.18;;;41.75;;
55493;SDS011;41355;50.390;19.096;2023-04-16T01:30:04;120.35;;;43.95;;
55493;SDS011;41355;50.390;19.096;2023-04-16T01:32:31;121.82;;;45.17;;
55493;SDS011;41355;50.390;19.096;2023-04-16T01:34:57;130.57;;;45.67;;
55493;SDS011;41355;50.390;19.096;2023-04-16T01:37:23;128.68;;;44.80;;
55493;SDS011;41355;50.390;19.096;2023-04-16T01:39:49;106.65;;;37.47;;
55493;SDS011;41355;50.390;19.096;2023-04-16T01:42:15;97.13;;;35.50;;
55493;SDS011;41355;50.390;19.096;2023-04-16T01:44:41;105.40;;;39.53;;
55493;SDS011;41355;50.390;19.096;2023-04-16T01:47:07;102.30;;;36.47;;
55493;SDS011;41355;50.390;19.096;2023-04-16T01:49:33;120.78;;;41.63;;
55493;SDS011;41355;50.390;19.096;2023-04-16T01:52:00;122.35;;;42.38;;
55493;SDS011;41355;50.390;19.096;2023-04-16T01:54:26;98.32;;;36.50;;
55493;SDS011;41355;50.390;19.096;2023-04-16T01:56:52;116.93;;;41.42;;
55493;SDS011;41355;50.390;19.096;2023-04-16T01:59:18;125.60;;;43.58;;
55493;SDS011;41355;50.390;19.096;2023-04-16T02:01:44;129.75;;;44.65;;
55493;SDS011;41355;50.390;19.096;2023-04-16T02:04:10;140.57;;;50.10;;
55493;SDS011;41355;50.390;19.096;2023-04-16T02:06:37;86.63;;;31.38;;
55493;SDS011;41355;50.390;19.096;2023-04-16T02:09:03;111.22;;;37.72;;
55493;SDS011;41355;50.390;19.096;2023-04-16T02:11:29;91.72;;;35.97;;
55493;SDS011;41355;50.390;19.096;2023-04-16T02:13:55;102.80;;;38.33;;
55493;SDS011;41355;50.390;19.096;2023-04-16T02:16:21;75.28;;;30.30;;
55493;SDS011;41355;50.390;19.096;2023-04-16T02:18:48;107.63;;;38.30;;
55493;SDS011;41355;50.390;19.096;2023-04-16T02:21:14;92.88;;;31.83;;
55493;SDS011;41355;50.390;19.096;2023-04-16T02:23:40;112.35;;;35.25;;
55493;SDS011;41355;50.390;19.096;2023-04-16T02:26:06;124.45;;;36.78;;
55493;SDS011;41355;50.390;19.096;2023-04-16T02:28:32;123.32;;;37.95;;
55493;SDS011;41355;50.390;19.096;2023-04-16T02:30:58;147.30;;;39.65;;
55493;SDS011;41355;50.390;19.096;2023-04-16T02:33:24;151.43;;;40.72;;
55493;SDS011;41355;50.390;19.096;2023-04-16T02:35:50;168.80;;;38.22;;
55493;SDS011;41355;50.390;19.096;2023-04-16T02:38:17;155.20;;;36.13;;
55493;SDS011;41355;50.390;19.096;2023-04-16T02:40:43;166.75;;;33.72;;
55493;SDS011;41355;50.390;19.096;2023-04-16T02:43:09;163.98;;;35.92;;
55493;SDS011;41355;50.390;19.096;2023-04-16T02:45:35;191.68;;;36.88;;
55493;SDS011;41355;50.390;19.096;2023-04-16T02:48:01;193.43;;;38.30;;
55493;SDS011;41355;50.390;19.096;2023-04-16T02:50:27;169.32;;;32.47;;
55493;SDS011;41355;50.390;19.096;2023-04-16T02:52:53;102.25;;;28.35;;
55493;SDS011;41355;50.390;19.096;2023-04-16T02:55:19;254.93;;;38.45;;
55493;SDS011;41355;50.390;19.096;2023-04-16T02:57:45;351.25;;;40.13;;
55493;SDS011;41355;50.390;19.096;2023-04-16T03:00:11;246.98;;;40.72;;
55493;SDS011;41355;50.390;19.096;2023-04-16T03:02:37;243.43;;;37.28;;
55493;SDS011;41355;50.390;19.096;2023-04-16T03:05:03;333.60;;;37.22;;
55493;SDS011;41355;50.390;19.096;2023-04-16T03:07:29;317.70;;;38.78;;
55493;SDS011;41355;50.390;19.096;2023-04-16T03:09:55;231.05;;;28.63;;
55493;SDS011;41355;50.390;19.096;2023-04-16T03:12:21;132.65;;;25.75;;
55493;SDS011;41355;50.390;19.096;2023-04-16T03:14:49;259.23;;;31.42;;
55493;SDS011;41355;50.390;19.096;2023-04-16T03:17:16;344.77;;;35.58;;
55493;SDS011;41355;50.390;19.096;2023-04-16T03:19:42;399.55;;;39.55;;
55493;SDS011;41355;50.390;19.096;2023-04-16T03:22:08;215.63;;;30.92;;
55493;SDS011;41355;50.390;19.096;2023-04-16T03:24:35;176.80;;;28.63;;
55493;SDS011;41355;50.390;19.096;2023-04-16T03:27:02;224.10;;;32.22;;
55493;SDS011;41355;50.390;19.096;2023-04-16T03:29:28;211.18;;;30.58;;
55493;SDS011;41355;50.390;19.096;2023-04-16T03:31:54;213.75;;;30.05;;
55493;SDS011;41355;50.390;19.096;2023-04-16T03:34:20;285.15;;;34.70;;
55493;SDS011;41355;50.390;19.096;2023-04-16T03:36:46;220.48;;;30.88;;
55493;SDS011;41355;50.390;19.096;2023-04-16T03:39:12;267.77;;;30.02;;
55493;SDS011;41355;50.390;19.096;2023-04-16T03:41:38;258.88;;;29.35;;
55493;SDS011;41355;50.390;19.096;2023-04-16T03:44:04;265.67;;;31.90;;
55493;SDS011;41355;50.390;19.096;2023-04-16T03:46:30;169.60;;;26.20;;
55493;SDS011;41355;50.390;19.096;2023-04-16T03:48:56;413.80;;;35.88;;
55493;SDS011;41355;50.390;19.096;2023-04-16T03:51:22;324.08;;;32.67;;
55493;SDS011;41355;50.390;19.096;2023-04-16T03:53:48;342.75;;;34.35;;
55493;SDS011;41355;50.390;19.096;2023-04-16T03:56:14;268.48;;;29.95;;
55493;SDS011;41355;50.390;19.096;2023-04-16T03:58:40;194.02;;;28.88;;
55493;SDS011;41355;50.390;19.096;2023-04-16T04:01:06;237.82;;;32.22;;
55493;SDS011;41355;50.390;19.096;2023-04-16T04:03:33;285.90;;;32.33;;
55493;SDS011;41355;50.390;19.096;2023-04-16T04:05:59;235.48;;;30.15;;
55493;SDS011;41355;50.390;19.096;2023-04-16T04:08:25;215.15;;;31.13;;
55493;SDS011;41355;50.390;19.096;2023-04-16T04:10:51;163.55;;;22.50;;
55493;SDS011;41355;50.390;19.096;2023-04-16T04:13:18;338.60;;;31.77;;
55493;SDS011;41355;50.390;19.096;2023-04-16T04:15:44;340.05;;;35.15;;
55493;SDS011;41355;50.390;19.096;2023-04-16T04:18:10;370.30;;;39.88;;
55493;SDS011;41355;50.390;19.096;2023-04-16T04:20:39;273.88;;;34.72;;
55493;SDS011;41355;50.390;19.096;2023-04-16T04:23:05;134.20;;;27.25;;
55493;SDS011;41355;50.390;19.096;2023-04-16T04:25:31;199.73;;;27.52;;
55493;SDS011;41355;50.390;19.096;2023-04-16T04:27:57;184.25;;;29.67;;
55493;SDS011;41355;50.390;19.096;2023-04-16T04:30:23;115.50;;;22.13;;
55493;SDS011;41355;50.390;19.096;2023-04-16T04:32:49;191.55;;;29.13;;
55493;SDS011;41355;50.390;19.096;2023-04-16T04:35:15;243.98;;;31.50;;
55493;SDS011;41355;50.390;19.096;2023-04-16T04:37:41;84.05;;;19.30;;
55493;SDS011;41355;50.390;19.096;2023-04-16T04:40:07;54.05;;;15.30;;
55493;SDS011;41355;50.390;19.096;2023-04-16T04:42:35;214.93;;;29.85;;
55493;SDS011;41355;50.390;19.096;2023-04-16T04:45:01;162.35;;;25.52;;
55493;SDS011;41355;50.390;19.096;2023-04-16T04:47:27;211.40;;;26.55;;
55493;SDS011;41355;50.390;19.096;2023-04-16T04:49:53;129.88;;;24.60;;
55493;SDS011;41355;50.390;19.096;2023-04-16T04:52:19;195.35;;;25.00;;
55493;SDS011;41355;50.390;19.096;2023-04-16T04:54:45;275.42;;;28.65;;
55493;SDS011;41355;50.390;19.096;2023-04-16T04:57:11;158.20;;;25.20;;
55493;SDS011;41355;50.390;19.096;2023-04-16T04:59:37;194.25;;;27.15;;
55493;SDS011;41355;50.390;19.096;2023-04-16T05:02:03;326.08;;;34.40;;
55493;SDS011;41355;50.390;19.096;2023-04-16T05:04:30;289.17;;;35.28;;
55493;SDS011;41355;50.390;19.096;2023-04-16T05:06:56;204.38;;;29.48;;
55493;SDS011;41355;50.390;19.096;2023-04-16T05:09:22;212.60;;;31.20;;
55493;SDS011;41355;50.390;19.096;2023-04-16T05:11:48;207.82;;;29.00;;
55493;SDS011;41355;50.390;19.096;2023-04-16T05:14:14;194.13;;;27.80;;
55493;SDS011;41355;50.390;19.096;2023-04-16T05:16:40;96.75;;;22.38;;
55493;SDS011;41355;50.390;19.096;2023-04-16T05:19:06;135.48;;;28.77;;
55493;SDS011;41355;50.390;19.096;2023-04-16T05:21:32;128.00;;;27.10;;
55493;SDS011;41355;50.390;19.096;2023-04-16T05:23:58;161.68;;;29.75;;
55493;SDS011;41355;50.390;19.096;2023-04-16T05:26:24;151.70;;;30.95;;
55493;SDS011;41355;50.390;19.096;2023-04-16T05:28:50;99.18;;;22.30;;
55493;SDS011;41355;50.390;19.096;2023-04-16T05:31:17;164.52;;;32.58;;
55493;SDS011;41355;50.390;19.096;2023-04-16T05:33:42;178.10;;;34.97;;
55493;SDS011;41355;50.390;19.096;2023-04-16T05:36:08;142.95;;;30.48;;
55493;SDS011;41355;50.390;19.096;2023-04-16T05:38:34;114.28;;;27.02;;
55493;SDS011;41355;50.390;19.096;2023-04-16T05:41:00;148.77;;;34.17;;
55493;SDS011;41355;50.390;19.096;2023-04-16T05:43:26;112.78;;;26.58;;
55493;SDS011;41355;50.390;19.096;2023-04-16T05:45:52;130.68;;;33.13;;
55493;SDS011;41355;50.390;19.096;2023-04-16T05:48:18;131.70;;;32.10;;
55493;SDS011;41355;50.390;19.096;2023-04-16T05:50:45;124.57;;;29.10;;
55493;SDS011;41355;50.390;19.096;2023-04-16T05:53:11;113.07;;;29.52;;
55493;SDS011;41355;50.390;19.096;2023-04-16T05:55:38;146.68;;;32.25;;
55493;SDS011;41355;50.390;19.096;2023-04-16T05:58:04;131.43;;;32.42;;
55493;SDS011;41355;50.390;19.096;2023-04-16T06:00:31;70.60;;;24.20;;
55493;SDS011;41355;50.390;19.096;2023-04-16T06:02:57;167.13;;;30.38;;
55493;SDS011;41355;50.390;19.096;2023-04-16T06:05:24;103.88;;;26.15;;
55493;SDS011;41355;50.390;19.096;2023-04-16T06:07:50;106.93;;;28.33;;
55493;SDS011;41355;50.390;19.096;2023-04-16T06:10:16;90.10;;;24.98;;
55493;SDS011;41355;50.390;19.096;2023-04-16T06:12:42;97.05;;;27.30;;
55493;SDS011;41355;50.390;19.096;2023-04-16T06:15:08;129.82;;;33.05;;
55493;SDS011;41355;50.390;19.096;2023-04-16T06:17:35;119.22;;;32.13;;
55493;SDS011;41355;50.390;19.096;2023-04-16T06:20:01;122.88;;;30.85;;
55493;SDS011;41355;50.390;19.096;2023-04-16T06:22:27;100.55;;;28.75;;
55493;SDS011;41355;50.390;19.096;2023-04-16T06:24:53;118.03;;;35.47;;
55493;SDS011;41355;50.390;19.096;2023-04-16T06:27:19;138.40;;;38.10;;
55493;SDS011;41355;50.390;19.096;2023-04-16T06:29:45;116.90;;;31.73;;
55493;SDS011;41355;50.390;19.096;2023-04-16T06:32:11;98.40;;;30.10;;
55493;SDS011;41355;50.390;19.096;2023-04-16T06:34:37;117.18;;;33.75;;
55493;SDS011;41355;50.390;19.096;2023-04-16T06:37:03;102.78;;;28.75;;
55493;SDS011;41355;50.390;19.096;2023-04-16T06:39:29;116.93;;;33.80;;
55493;SDS011;41355;50.390;19.096;2023-04-16T06:41:55;77.75;;;25.20;;
55493;SDS011;41355;50.390;19.096;2023-04-16T06:44:22;84.05;;;27.13;;
55493;SDS011;41355;50.390;19.096;2023-04-16T06:46:48;238.60;;;68.90;;
55493;SDS011;41355;50.390;19.096;2023-04-16T06:49:14;700.38;;;175.70;;
55493;SDS011;41355;50.390;19.096;2023-04-16T06:51:41;1239.70;;;343.98;;
55493;SDS011;41355;50.390;19.096;2023-04-16T06:54:07;282.08;;;65.63;;
55493;SDS011;41355;50.390;19.096;2023-04-16T06:56:33;117.72;;;32.95;;
55493;SDS011;41355;50.390;19.096;2023-04-16T06:59:01;982.15;;;247.10;;
55493;SDS011;41355;50.390;19.096;2023-04-16T07:01:27;257.83;;;60.58;;
55493;SDS011;41355;50.390;19.096;2023-04-16T07:03:55;227.40;;;59.38;;
55493;SDS011;41355;50.390;19.096;2023-04-16T07:06:21;251.48;;;64.88;;
55493;SDS011;41355;50.390;19.096;2023-04-16T07:08:47;107.60;;;35.03;;
55493;SDS011;41355;50.390;19.096;2023-04-16T07:11:13;154.18;;;46.97;;
55493;SDS011;41355;50.390;19.096;2023-04-16T07:13:39;75.35;;;24.33;;
55493;SDS011;41355;50.390;19.096;2023-04-16T07:16:05;191.98;;;61.50;;
55493;SDS011;41355;50.390;19.096;2023-04-16T07:18:31;59.42;;;22.02;;
55493;SDS011;41355;50.390;19.096;2023-04-16T07:20:57;56.75;;;17.85;;
55493;SDS011;41355;50.390;19.096;2023-04-16T07:23:23;73.95;;;24.33;;
55493;SDS011;41355;50.390;19.096;2023-04-16T07:25:49;103.55;;;38.00;;
55493;SDS011;41355;50.390;19.096;2023-04-16T07:28:15;70.88;;;24.20;;
55493;SDS011;41355;50.390;19.096;2023-04-16T07:30:42;61.83;;;22.50;;
55493;SDS011;41355;50.390;19.096;2023-04-16T07:33:08;45.15;;;15.88;;
55493;SDS011;41355;50.390;19.096;2023-04-16T07:35:34;53.30;;;20.88;;
55493;SDS011;41355;50.390;19.096;2023-04-16T07:38:00;46.03;;;17.30;;
55493;SDS011;41355;50.390;19.096;2023-04-16T07:40:26;229.68;;;53.30;;
55493;SDS011;41355;50.390;19.096;2023-04-16T07:42:53;66.85;;;20.92;;
55493;SDS011;41355;50.390;19.096;2023-04-16T07:45:19;47.10;;;16.52;;
55493;SDS011;41355;50.390;19.096;2023-04-16T07:47:45;73.95;;;23.38;;
55493;SDS011;41355;50.390;19.096;2023-04-16T07:50:12;191.93;;;38.10;;
55493;SDS011;41355;50.390;19.096;2023-04-16T07:52:38;41.22;;;16.77;;
55493;SDS011;41355;50.390;19.096;2023-04-16T07:55:06;47.72;;;16.63;;
55493;SDS011;41355;50.390;19.096;2023-04-16T07:57:32;74.50;;;24.02;;
55493;SDS011;41355;50.390;19.096;2023-04-16T07:59:58;40.35;;;15.77;;
55493;SDS011;41355;50.390;19.096;2023-04-16T08:02:26;62.75;;;20.58;;
55493;SDS011;41355;50.390;19.096;2023-04-16T08:04:52;97.47;;;30.25;;
55493;SDS011;41355;50.390;19.096;2023-04-16T08:07:18;51.45;;;20.52;;
55493;SDS011;41355;50.390;19.096;2023-04-16T08:09:47;36.92;;;14.15;;
55493;SDS011;41355;50.390;19.096;2023-04-16T08:12:14;33.90;;;14.35;;
55493;SDS011;41355;50.390;19.096;2023-04-16T08:14:41;32.20;;;14.43;;
55493;SDS011;41355;50.390;19.096;2023-04-16T08:17:07;23.45;;;10.73;;
55493;SDS011;41355;50.390;19.096;2023-04-16T08:19:33;25.30;;;11.38;;
55493;SDS011;41355;50.390;19.096;2023-04-16T08:21:59;29.17;;;12.60;;
55493;SDS011;41355;50.390;19.096;2023-04-16T08:24:25;24.48;;;10.02;;
55493;SDS011;41355;50.390;19.096;2023-04-16T08:26:51;24.38;;;10.57;;
55493;SDS011;41355;50.390;19.096;2023-04-16T08:29:17;22.92;;;11.02;;
55493;SDS011;41355;50.390;19.096;2023-04-16T08:31:44;27.48;;;11.50;;
55493;SDS011;41355;50.390;19.096;2023-04-16T08:34:11;20.27;;;11.00;;
55493;SDS011;41355;50.390;19.096;2023-04-16T08:36:37;21.92;;;10.63;;
55493;SDS011;41355;50.390;19.096;2023-04-16T08:39:03;24.50;;;11.02;;
55493;SDS011;41355;50.390;19.096;2023-04-16T08:41:33;22.67;;;10.15;;
55493;SDS011;41355;50.390;19.096;2023-04-16T08:43:59;22.48;;;11.88;;
55493;SDS011;41355;50.390;19.096;2023-04-16T08:46:27;21.30;;;10.80;;
55493;SDS011;41355;50.390;19.096;2023-04-16T08:48:54;24.38;;;11.10;;
55493;SDS011;41355;50.390;19.096;2023-04-16T08:51:23;17.40;;;9.15;;
55493;SDS011;41355;50.390;19.096;2023-04-16T08:53:51;20.33;;;10.82;;
55493;SDS011;41355;50.390;19.096;2023-04-16T08:56:21;28.25;;;11.68;;
55493;SDS011;41355;50.390;19.096;2023-04-16T08:58:49;28.70;;;14.15;;
55493;SDS011;41355;50.390;19.096;2023-04-16T09:01:16;19.25;;;8.95;;
55493;SDS011;41355;50.390;19.096;2023-04-16T09:03:46;28.70;;;14.68;;
55493;SDS011;41355;50.390;19.096;2023-04-16T09:06:12;26.67;;;13.60;;
55493;SDS011;41355;50.390;19.096;2023-04-16T09:08:40;26.45;;;12.27;;
55493;SDS011;41355;50.390;19.096;2023-04-16T09:11:06;26.77;;;14.00;;
55493;SDS011;41355;50.390;19.096;2023-04-16T09:13:32;29.42;;;13.73;;
55493;SDS011;41355;50.390;19.096;2023-04-16T09:16:01;23.13;;;12.60;;
55493;SDS011;41355;50.390;19.096;2023-04-16T09:18:34;19.83;;;9.73;;
55493;SDS011;41355;50.390;19.096;2023-04-16T09:21:00;21.85;;;11.77;;
55493;SDS011;41355;50.390;19.096;2023-04-16T09:23:27;19.27;;;9.68;;
55493;SDS011;41355;50.390;19.096;2023-04-16T09:25:54;19.70;;;10.48;;
55493;SDS011;41355;50.390;19.096;2023-04-16T09:28:39;16.02;;;8.63;;
55493;SDS011;41355;50.390;19.096;2023-04-16T09:33:34;15.35;;;8.57;;
55493;SDS011;41355;50.390;19.096;2023-04-16T09:36:00;18.00;;;7.53;;
55493;SDS011;41355;50.390;19.096;2023-04-16T09:38:29;12.68;;;6.82;;
55493;SDS011;41355;50.390;19.096;2023-04-16T09:41:10;15.60;;;8.88;;
55493;SDS011;41355;50.390;19.096;2023-04-16T09:43:37;16.08;;;9.15;;
55493;SDS011;41355;50.390;19.096;2023-04-16T09:46:03;15.85;;;8.95;;
55493;SDS011;41355;50.390;19.096;2023-04-16T09:48:30;14.88;;;8.98;;
55493;SDS011;41355;50.390;19.096;2023-04-16T09:50:56;12.15;;;6.65;;
55493;SDS011;41355;50.390;19.096;2023-04-16T09:53:29;15.70;;;9.40;;
55493;SDS011;41355;50.390;19.096;2023-04-16T09:56:00;15.33;;;7.30;;
55493;SDS011;41355;50.390;19.096;2023-04-16T09:58:26;18.98;;;9.27;;
55493;SDS011;41355;50.390;19.096;2023-04-16T10:01:03;16.38;;;8.90;;
55493;SDS011;41355;50.390;19.096;2023-04-16T10:03:30;11.23;;;5.43;;
55493;SDS011;41355;50.390;19.096;2023-04-16T10:06:16;15.65;;;8.98;;
55493;SDS011;41355;50.390;19.096;2023-04-16T10:08:46;16.10;;;8.82;;
55493;SDS011;41355;50.390;19.096;2023-04-16T10:11:13;15.15;;;9.00;;
55493;SDS011;41355;50.390;19.096;2023-04-16T10:13:39;22.30;;;10.80;;
55493;SDS011;41355;50.390;19.096;2023-04-16T10:16:05;16.88;;;8.52;;
55493;SDS011;41355;50.390;19.096;2023-04-16T10:18:33;23.20;;;14.60;;
55493;SDS011;41355;50.390;19.096;2023-04-16T10:21:01;15.32;;;8.50;;
55493;SDS011;41355;50.390;19.096;2023-04-16T10:23:27;88.40;;;32.45;;
55493;SDS011;41355;50.390;19.096;2023-04-16T10:25:53;18.23;;;9.20;;
55493;SDS011;41355;50.390;19.096;2023-04-16T10:28:20;12.32;;;6.30;;
55493;SDS011;41355;50.390;19.096;2023-04-16T10:30:46;14.35;;;8.15;;
55493;SDS011;41355;50.390;19.096;2023-04-16T10:33:24;14.00;;;7.90;;
55493;SDS011;41355;50.390;19.096;2023-04-16T10:35:51;13.02;;;7.70;;
55493;SDS011;41355;50.390;19.096;2023-04-16T10:38:21;15.18;;;7.05;;
55493;SDS011;41355;50.390;19.096;2023-04-16T10:40:48;14.98;;;8.20;;
55493;SDS011;41355;50.390;19.096;2023-04-16T10:43:17;12.52;;;6.65;;
55493;SDS011;41355;50.390;19.096;2023-04-16T10:45:43;18.80;;;9.85;;
55493;SDS011;41355;50.390;19.096;2023-04-16T10:48:10;10.55;;;6.75;;
55493;SDS011;41355;50.390;19.096;2023-04-16T10:50:38;12.57;;;6.70;;
55493;SDS011;41355;50.390;19.096;2023-04-16T10:53:18;10.77;;;6.05;;
55493;SDS011;41355;50.390;19.096;2023-04-16T10:55:57;21.98;;;10.25;;
55493;SDS011;41355;50.390;19.096;2023-04-16T10:58:27;18.63;;;10.68;;
55493;SDS011;41355;50.390;19.096;2023-04-16T11:00:53;10.98;;;6.40;;
55493;SDS011;41355;50.390;19.096;2023-04-16T11:03:19;12.73;;;6.03;;
55493;SDS011;41355;50.390;19.096;2023-04-16T11:05:45;9.60;;;5.40;;
55493;SDS011;41355;50.390;19.096;2023-04-16T11:08:14;12.10;;;7.22;;
55493;SDS011;41355;50.390;19.096;2023-04-16T11:10:40;13.40;;;8.55;;
55493;SDS011;41355;50.390;19.096;2023-04-16T11:13:06;13.02;;;7.43;;
55493;SDS011;41355;50.390;19.096;2023-04-16T11:15:33;12.85;;;7.32;;
55493;SDS011;41355;50.390;19.096;2023-04-16T11:18:00;13.05;;;7.72;;
55493;SDS011;41355;50.390;19.096;2023-04-16T11:20:28;12.35;;;7.28;;
55493;SDS011;41355;50.390;19.096;2023-04-16T11:22:55;10.82;;;6.90;;
55493;SDS011;41355;50.390;19.096;2023-04-16T11:25:22;13.73;;;6.97;;
55493;SDS011;41355;50.390;19.096;2023-04-16T11:27:48;11.35;;;5.95;;
55493;SDS011;41355;50.390;19.096;2023-04-16T11:30:15;10.63;;;5.88;;
55493;SDS011;41355;50.390;19.096;2023-04-16T11:32:42;14.40;;;7.22;;
55493;SDS011;41355;50.390;19.096;2023-04-16T11:35:16;13.68;;;7.90;;
55493;SDS011;41355;50.390;19.096;2023-04-16T11:37:42;16.65;;;8.52;;
55493;SDS011;41355;50.390;19.096;2023-04-16T11:40:08;10.63;;;5.68;;
55493;SDS011;41355;50.390;19.096;2023-04-16T11:42:38;14.07;;;7.03;;
55493;SDS011;41355;50.390;19.096;2023-04-16T11:45:05;13.02;;;8.23;;
55493;SDS011;41355;50.390;19.096;2023-04-16T11:47:31;12.75;;;7.15;;
55493;SDS011;41355;50.390;19.096;2023-04-16T11:49:58;14.40;;;7.10;;
55493;SDS011;41355;50.390;19.096;2023-04-16T11:52:39;17.17;;;7.63;;
55493;SDS011;41355;50.390;19.096;2023-04-16T11:55:05;14.75;;;8.20;;
55493;SDS011;41355;50.390;19.096;2023-04-16T11:57:31;14.63;;;7.95;;
55493;SDS011;41355;50.390;19.096;2023-04-16T11:59:58;12.68;;;7.15;;
55493;SDS011;41355;50.390;19.096;2023-04-16T12:07:56;11.77;;;6.50;;
55493;SDS011;41355;50.390;19.096;2023-04-16T12:10:23;16.45;;;7.28;;
55493;SDS011;41355;50.390;19.096;2023-04-16T12:12:49;12.32;;;7.25;;
55493;SDS011;41355;50.390;19.096;2023-04-16T12:15:15;11.75;;;6.95;;
55493;SDS011;41355;50.390;19.096;2023-04-16T12:17:41;12.85;;;7.30;;
55493;SDS011;41355;50.390;19.096;2023-04-16T12:20:08;10.93;;;6.88;;
55493;SDS011;41355;50.390;19.096;2023-04-16T12:22:38;13.20;;;7.38;;
55493;SDS011;41355;50.390;19.096;2023-04-16T12:27:40;12.70;;;7.18;;
55493;SDS011;41355;50.390;19.096;2023-04-16T12:30:07;13.00;;;7.43;;
55493;SDS011;41355;50.390;19.096;2023-04-16T12:32:33;145.82;;;92.20;;
55493;SDS011;41355;50.390;19.096;2023-04-16T12:34:59;11.75;;;6.90;;
55493;SDS011;41355;50.390;19.096;2023-04-16T12:37:25;35.67;;;21.90;;
55493;SDS011;41355;50.390;19.096;2023-04-16T12:39:52;12.75;;;7.30;;
55493;SDS011;41355;50.390;19.096;2023-04-16T12:42:20;10.82;;;6.80;;
55493;SDS011;41355;50.390;19.096;2023-04-16T12:44:46;32.47;;;24.20;;
55493;SDS011;41355;50.390;19.096;2023-04-16T12:47:12;14.05;;;8.40;;
55493;SDS011;41355;50.390;19.096;2023-04-16T12:49:41;19.13;;;9.50;;
55493;SDS011;41355;50.390;19.096;2023-04-16T12:52:08;15.50;;;9.20;;
55493;SDS011;41355;50.390;19.096;2023-04-16T12:54:34;11.75;;;6.15;;
55493;SDS011;41355;50.390;19.096;2023-04-16T12:57:07;9.68;;;6.25;;
55493;SDS011;41355;50.390;19.096;2023-04-16T12:59:33;13.15;;;7.13;;
55493;SDS011;41355;50.390;19.096;2023-04-16T13:01:59;15.52;;;8.43;;
55493;SDS011;41355;50.390;19.096;2023-04-16T13:04:26;10.68;;;6.60;;
55493;SDS011;41355;50.390;19.096;2023-04-16T13:06:52;13.52;;;7.18;;
55493;SDS011;41355;50.390;19.096;2023-04-16T13:09:18;11.43;;;7.10;;
55493;SDS011;41355;50.390;19.096;2023-04-16T13:11:44;11.38;;;6.72;;
55493;SDS011;41355;50.390;19.096;2023-04-16T13:14:10;11.35;;;6.93;;
55493;SDS011;41355;50.390;19.096;2023-04-16T13:16:36;12.02;;;6.85;;
55493;SDS011;41355;50.390;19.096;2023-04-16T13:19:03;11.65;;;6.85;;
55493;SDS011;41355;50.390;19.096;2023-04-16T13:21:29;12.77;;;6.78;;
55493;SDS011;41355;50.390;19.096;2023-04-16T13:23:55;9.73;;;5.95;;
55493;SDS011;41355;50.390;19.096;2023-04-16T13:26:21;11.25;;;5.53;;
55493;SDS011;41355;50.390;19.096;2023-04-16T13:28:47;8.80;;;5.43;;
55493;SDS011;41355;50.390;19.096;2023-04-16T13:31:13;9.55;;;5.55;;
55493;SDS011;41355;50.390;19.096;2023-04-16T13:33:42;10.52;;;5.93;;
55493;SDS011;41355;50.390;19.096;2023-04-16T13:36:08;10.07;;;5.80;;
55493;SDS011;41355;50.390;19.096;2023-04-16T13:38:34;11.18;;;5.97;;
55493;SDS011;41355;50.390;19.096;2023-04-16T13:41:00;10.48;;;6.10;;
55493;SDS011;41355;50.390;19.096;2023-04-16T13:43:26;10.77;;;6.72;;
55493;SDS011;41355;50.390;19.096;2023-04-16T13:45:52;9.30;;;5.93;;
55493;SDS011;41355;50.390;19.096;2023-04-16T13:48:18;19.02;;;10.02;;
55493;SDS011;41355;50.390;19.096;2023-04-16T13:50:44;13.52;;;7.32;;
55493;SDS011;41355;50.390;19.096;2023-04-16T13:53:10;9.57;;;5.47;;
55493;SDS011;41355;50.390;19.096;2023-04-16T13:55:36;10.43;;;5.00;;
55493;SDS011;41355;50.390;19.096;2023-04-16T13:58:02;9.25;;;5.18;;
55493;SDS011;41355;50.390;19.096;2023-04-16T14:00:28;8.50;;;5.03;;
55493;SDS011;41355;50.390;19.096;2023-04-16T14:02:54;10.73;;;5.75;;
55493;SDS011;41355;50.390;19.096;2023-04-16T14:05:20;11.13;;;6.72;;
55493;SDS011;41355;50.390;19.096;2023-04-16T14:07:47;10.18;;;6.50;;
55493;SDS011;41355;50.390;19.096;2023-04-16T14:10:14;11.13;;;6.80;;
55493;SDS011;41355;50.390;19.096;2023-04-16T14:12:40;12.07;;;7.95;;
55493;SDS011;41355;50.390;19.096;2023-04-16T14:15:06;15.27;;;10.40;;